Time;durP1;ratioP1;P1;durP2;ratioP2;P2;SDS_P1;SDS_P2;PMS_P1;PMS_P2;Temp;Humidity;BMP_temperature;BMP_pressure;BME280_temperature;BME280_humidity;BME280_pressure;Samples;Min_cycle;Max_cycle;Signal;HPM_P1;HPM_P2
2021/03/12 00:02:39;;;;;;;5.00;3.50;;;19.80;51.70;;;;;;10373025;28;20573;-26
2021/03/12 00:08:02;;;;;;;7.03;4.27;;;19.70;51.80;;;;;;10377817;28;20209;-28
2021/03/12 00:13:25;;;;;;;6.77;4.03;;;19.70;51.80;;;;;;10391895;28;20216;-26
2021/03/12 00:18:46;;;;;;;6.40;4.10;;;19.80;51.70;;;;;;10413265;28;20697;-28
2021/03/12 00:24:10;;;;;;;6.13;3.90;;;19.70;51.60;;;;;;10374529;28;20240;-26
2021/03/12 00:29:31;;;;;;;5.40;3.67;;;19.70;51.70;;;;;;10370831;28;20205;-27
2021/03/12 00:34:53;;;;;;;5.20;3.80;;;19.70;51.80;;;;;;10388814;28;20222;-26
2021/03/12 00:40:18;;;;;;;5.17;3.27;;;19.70;51.80;;;;;;10381795;28;20201;-27
2021/03/12 00:45:42;;;;;;;3.77;2.90;;;19.70;51.80;;;;;;10412057;28;20229;-25
2021/03/12 00:51:05;;;;;;;5.03;3.67;;;19.60;51.90;;;;;;10411442;28;20213;-27
2021/03/12 00:56:27;;;;;;;5.90;3.40;;;19.60;51.90;;;;;;10412729;28;20217;-24
2021/03/12 01:01:50;;;;;;;5.07;3.50;;;19.70;51.90;;;;;;10411874;28;20199;-27
2021/03/12 01:07:11;;;;;;;5.30;3.07;;;19.60;51.90;;;;;;10427026;23;20976;-21
2021/03/12 01:12:34;;;;;;;5.77;3.10;;;19.60;51.90;;;;;;10434877;28;20301;-21
2021/03/12 01:17:56;;;;;;;4.40;3.10;;;19.60;51.90;;;;;;10453623;28;20270;-22
2021/03/12 01:23:18;;;;;;;4.87;3.37;;;19.60;51.90;;;;;;10492846;28;20699;-22
2021/03/12 01:28:40;;;;;;;4.53;3.17;;;19.60;51.80;;;;;;10492690;28;20694;-21
2021/03/12 01:34:02;;;;;;;4.53;3.10;;;19.60;51.80;;;;;;10492581;28;20250;-22
2021/03/12 01:39:23;;;;;;;5.30;3.40;;;19.60;51.90;;;;;;10491377;28;20716;-22
2021/03/12 01:44:46;;;;;;;4.80;2.90;;;19.50;51.90;;;;;;10457475;28;20191;-22
2021/03/12 01:50:09;;;;;;;4.73;2.97;;;19.60;51.90;;;;;;10467895;28;20751;-22
2021/03/12 01:55:32;;;;;;;3.67;2.53;;;19.60;51.90;;;;;;10491416;28;20203;-22
2021/03/12 02:00:55;;;;;;;4.13;3.00;;;19.50;51.90;;;;;;10479071;28;20317;-21
2021/03/12 02:06:17;;;;;;;4.47;2.47;;;19.50;51.90;;;;;;10451348;28;20193;-21
2021/03/12 02:11:39;;;;;;;3.77;2.57;;;19.50;52.00;;;;;;10451764;28;20220;-22
2021/03/12 02:17:08;;;;;;;4.80;2.70;;;19.50;51.90;;;;;;10487563;28;20219;-22
2021/03/12 02:22:33;;;;;;;3.80;2.20;;;19.50;51.90;;;;;;10451198;28;20201;-22
2021/03/12 02:27:58;;;;;;;3.10;2.10;;;19.50;52.00;;;;;;10456276;28;20594;-22
2021/03/12 02:33:22;;;;;;;3.60;2.30;;;19.50;52.00;;;;;;10466135;28;20213;-22
2021/03/12 02:38:44;;;;;;;3.70;2.50;;;19.50;51.90;;;;;;10458412;28;20232;-21
2021/03/12 02:44:08;;;;;;;4.50;2.47;;;19.50;51.90;;;;;;10475843;28;20617;-22
2021/03/12 02:49:32;;;;;;;3.37;2.13;;;19.50;51.90;;;;;;10497232;28;20220;-22
2021/03/12 02:54:54;;;;;;;4.33;2.27;;;19.40;52.00;;;;;;10498451;28;20225;-21
2021/03/12 03:00:17;;;;;;;3.03;1.97;;;19.50;52.00;;;;;;10498671;28;20697;-22
2021/03/12 03:05:39;;;;;;;3.37;2.27;;;19.50;51.90;;;;;;10462886;28;20675;-21
2021/03/12 03:11:02;;;;;;;3.80;2.20;;;19.50;52.00;;;;;;10456780;28;20225;-22
2021/03/12 03:16:29;;;;;;;5.30;2.17;;;19.40;52.00;;;;;;10456361;28;20545;-22
2021/03/12 03:21:51;;;;;;;4.40;2.67;;;19.40;52.00;;;;;;10456564;28;20607;-22
2021/03/12 03:27:13;;;;;;;2.77;2.07;;;19.40;52.00;;;;;;10456123;28;20211;-22
2021/03/12 03:32:36;;;;;;;3.87;2.27;;;19.40;52.00;;;;;;10466551;28;20703;-22
2021/03/12 03:37:58;;;;;;;2.23;1.73;;;19.40;52.10;;;;;;10495519;28;20224;-22
2021/03/12 03:43:24;;;;;;;2.90;2.00;;;19.40;52.10;;;;;;10488621;28;20754;-22
2021/03/12 03:48:47;;;;;;;3.23;1.90;;;19.40;52.00;;;;;;10463606;28;20221;-22
2021/03/12 03:54:12;;;;;;;2.83;1.80;;;19.40;51.90;;;;;;10454100;28;20220;-22
2021/03/12 03:59:37;;;;;;;3.07;1.90;;;19.40;52.00;;;;;;10464419;28;20216;-22
2021/03/12 04:05:02;;;;;;;2.47;1.80;;;19.40;52.70;;;;;;10454863;28;20193;-22
2021/03/12 04:10:24;;;;;;;2.87;1.70;;;19.40;52.10;;;;;;10454008;28;20223;-22
2021/03/12 04:15:46;;;;;;;2.17;1.57;;;19.30;51.90;;;;;;10454457;28;20203;-22
2021/03/12 04:21:08;;;;;;;2.93;1.73;;;19.40;52.00;;;;;;10492119;28;20764;-21
2021/03/12 04:26:31;;;;;;;3.83;1.80;;;19.30;52.10;;;;;;10494225;28;20194;-22
2021/03/12 04:31:53;;;;;;;2.50;1.67;;;19.30;52.10;;;;;;10467746;28;20761;-22
2021/03/12 04:37:16;;;;;;;2.70;1.60;;;19.40;52.10;;;;;;10452551;28;20266;-21
2021/03/12 04:42:38;;;;;;;2.73;1.90;;;19.50;51.80;;;;;;10449951;28;20198;-22
2021/03/12 04:48:00;;;;;;;2.90;1.83;;;19.60;51.60;;;;;;10452727;28;20224;-22
2021/03/12 04:53:23;;;;;;;2.03;1.57;;;19.60;51.90;;;;;;10450425;28;20253;-22
2021/03/12 04:58:45;;;;;;;2.40;1.53;;;19.70;51.20;;;;;;10450258;28;20219;-21
2021/03/12 05:04:08;;;;;;;3.30;1.80;;;19.60;51.40;;;;;;10478158;28;20675;-22
2021/03/12 05:09:31;;;;;;;2.20;1.30;;;19.60;51.40;;;;;;10451723;28;20236;-22
2021/03/12 05:14:52;;;;;;;2.47;1.60;;;19.70;51.30;;;;;;10463993;28;20276;-22
2021/03/12 05:20:15;;;;;;;4.20;1.77;;;19.70;51.10;;;;;;10453768;28;20222;-21
2021/03/12 05:25:37;;;;;;;3.53;1.70;;;19.80;51.00;;;;;;10449886;28;20268;-22
2021/03/12 05:30:59;;;;;;;3.20;1.70;;;19.80;50.80;;;;;;10464774;28;20224;-21
2021/03/12 05:36:21;;;;;;;2.70;1.50;;;19.80;50.70;;;;;;10449707;28;20729;-21
2021/03/12 05:41:43;;;;;;;2.20;1.27;;;19.80;50.80;;;;;;10449380;28;20217;-21
2021/03/12 05:47:06;;;;;;;1.77;1.40;;;19.80;51.40;;;;;;10477718;28;20216;-22
2021/03/12 05:52:27;;;;;;;4.13;1.63;;;19.90;50.80;;;;;;10448874;28;20212;-22
2021/03/12 05:57:50;;;;;;;2.13;1.40;;;19.90;50.70;;;;;;10447407;28;20695;-21
2021/03/12 06:03:12;;;;;;;3.20;1.83;;;19.90;50.90;;;;;;10451479;28;20189;-22
2021/03/12 06:08:34;;;;;;;1.50;1.20;;;19.80;50.90;;;;;;10471186;28;20223;-22
2021/03/12 06:13:56;;;;;;;2.87;1.80;;;19.80;51.00;;;;;;10494116;28;20219;-22
2021/03/12 06:19:19;;;;;;;1.70;1.27;;;19.60;51.20;;;;;;10480672;28;20219;-22
2021/03/12 06:24:41;;;;;;;1.90;1.40;;;19.70;51.20;;;;;;10473829;28;20265;-21
2021/03/12 06:30:04;;;;;;;2.50;1.10;;;19.80;51.10;;;;;;10464625;28;20224;-20
2021/03/12 06:35:34;;;;;;;2.07;1.30;;;19.80;50.80;;;;;;10451678;28;20198;-22
2021/03/12 06:40:55;;;;;;;2.80;1.53;;;19.80;50.70;;;;;;10456067;28;20214;-22
2021/03/12 06:46:20;;;;;;;2.80;1.40;;;19.90;50.70;;;;;;10457424;28;20206;-22
2021/03/12 06:51:53;;;;;;;3.10;1.40;;;19.90;50.60;;;;;;10458072;28;20242;-22
2021/03/12 06:57:19;;;;;;;4.07;1.30;;;19.90;50.40;;;;;;10493790;28;20262;-21
2021/03/12 07:02:41;;;;;;;4.20;2.40;;;20.00;50.70;;;;;;10471369;28;20209;-21
2021/03/12 07:08:04;;;;;;;4.87;1.90;;;20.00;47.50;;;;;;10481053;28;20258;-22
2021/03/12 07:13:27;;;;;;;4.30;1.67;;;20.10;45.70;;;;;;10487986;28;20228;-21
2021/03/12 07:18:50;;;;;;;5.53;1.87;;;20.10;45.70;;;;;;10481893;28;20288;-21
2021/03/12 07:24:15;;;;;;;3.67;1.80;;;20.20;45.30;;;;;;10465779;28;20192;-21
2021/03/12 07:29:38;;;;;;;4.70;1.77;;;20.10;43.80;;;;;;10452110;28;20222;-22
2021/03/12 07:35:01;;;;;;;6.17;2.47;;;20.10;43.40;;;;;;10462403;23;20231;-22
2021/03/12 07:40:23;;;;;;;5.97;2.37;;;20.10;43.50;;;;;;10451380;28;20576;-22
2021/03/12 07:45:45;;;;;;;3.83;1.70;;;20.10;43.30;;;;;;10493354;28;20262;-23
2021/03/12 07:51:10;;;;;;;7.17;2.40;;;20.10;43.30;;;;;;10488960;28;20287;-26
2021/03/12 07:56:51;;;;;;;4.00;1.80;;;20.10;42.50;;;;;;10456979;28;20201;-22
2021/03/12 08:02:13;;;;;;;5.47;2.30;;;20.00;42.20;;;;;;10459463;28;20592;-23
2021/03/12 08:07:35;;;;;;;5.93;1.60;;;20.10;42.40;;;;;;10480932;28;20200;-22
2021/03/12 08:12:57;;;;;;;4.87;1.40;;;20.20;43.00;;;;;;10459799;28;20222;-22
2021/03/12 08:18:25;;;;;;;5.23;2.23;;;20.30;42.90;;;;;;10473497;28;20203;-24
2021/03/12 08:23:48;;;;;;;4.93;1.60;;;20.30;42.30;;;;;;10447768;28;20218;-25
2021/03/12 08:29:35;;;;;;;5.47;1.40;;;20.40;41.90;;;;;;10454940;28;20615;-24
2021/03/12 08:34:57;;;;;;;4.90;1.67;;;20.70;42.10;;;;;;10472695;28;20255;-22
2021/03/12 08:40:23;;;;;;;5.13;1.43;;;20.80;42.30;;;;;;10471641;28;20251;-23
2021/03/12 08:45:47;;;;;;;5.57;1.87;;;21.00;41.50;;;;;;10489069;28;20209;-23
2021/03/12 08:51:12;;;;;;;3.97;1.50;;;20.90;41.80;;;;;;10489151;28;20744;-24
2021/03/12 08:56:36;;;;;;;6.10;1.80;;;20.70;41.90;;;;;;10462163;28;20202;-22
2021/03/12 09:01:58;;;;;;;8.87;1.90;;;20.40;41.40;;;;;;10446489;28;21017;-21
2021/03/12 09:07:20;;;;;;;4.67;1.60;;;20.30;42.30;;;;;;10446543;28;20197;-20
2021/03/12 09:12:42;;;;;;;4.43;1.60;;;20.30;42.10;;;;;;10446265;28;20219;-23
2021/03/12 09:18:04;;;;;;;5.77;1.83;;;20.40;42.10;;;;;;10457043;28;20630;-23
2021/03/12 09:23:35;;;;;;;4.50;1.77;;;20.50;41.90;;;;;;10482101;28;20213;-23
2021/03/12 09:28:59;;;;;;;4.87;1.90;;;20.40;42.00;;;;;;10482261;28;20199;-27
2021/03/12 09:34:21;;;;;;;4.73;1.80;;;20.30;41.50;;;;;;10444907;28;20221;-21
2021/03/12 09:39:42;;;;;;;6.63;2.30;;;20.30;41.50;;;;;;10467971;28;20223;-23
2021/03/12 09:45:06;;;;;;;5.97;1.97;;;20.30;41.90;;;;;;10484467;28;20218;-23
2021/03/12 09:50:28;;;;;;;5.90;1.87;;;20.30;41.70;;;;;;10486352;28;20241;-22
2021/03/12 09:55:52;;;;;;;5.43;2.53;;;20.20;41.50;;;;;;10484377;28;20243;-22
2021/03/12 10:01:16;;;;;;;7.37;2.67;;;20.30;41.70;;;;;;10484558;28;20666;-22
2021/03/12 10:06:37;;;;;;;8.63;2.90;;;20.30;41.50;;;;;;10491101;28;20200;-22
2021/03/12 10:12:00;;;;;;;7.87;2.73;;;20.30;41.30;;;;;;10461159;28;20659;-25
2021/03/12 10:17:26;;;;;;;6.33;2.03;;;20.20;41.30;;;;;;10468718;28;20189;-22
2021/03/12 10:22:49;;;;;;;4.70;2.23;;;20.30;41.40;;;;;;10450603;28;20330;-21
2021/03/12 10:28:12;;;;;;;5.17;2.07;;;20.40;41.30;;;;;;10457573;28;20253;-22
2021/03/12 10:33:36;;;;;;;5.43;1.57;;;20.50;40.80;;;;;;10490205;28;20220;-22
2021/03/12 10:38:58;;;;;;;8.07;1.93;;;20.40;43.00;;;;;;10478456;28;20286;-21
2021/03/12 10:44:19;;;;;;;4.30;1.47;;;20.50;43.90;;;;;;10487479;28;20212;-23
2021/03/12 10:49:42;;;;;;;4.17;1.67;;;20.60;44.10;;;;;;10482067;28;20831;-22
2021/03/12 10:55:09;;;;;;;4.97;1.77;;;20.80;44.20;;;;;;10486849;28;20274;-25
2021/03/12 11:00:31;;;;;;;4.87;1.30;;;20.90;44.30;;;;;;10469189;28;20200;-22
2021/03/12 11:05:54;;;;;;;2.17;1.30;;;21.00;44.40;;;;;;10481987;28;20587;-23
2021/03/12 11:11:20;;;;;;;3.83;1.30;;;20.90;44.60;;;;;;10497134;28;20583;-23
2021/03/12 11:16:41;;;;;;;3.27;1.50;;;20.90;44.80;;;;;;10478019;28;20193;-22
2021/03/12 11:22:04;;;;;;;23.00;3.20;;;20.90;44.30;;;;;;10462433;28;20235;-25
2021/03/12 11:27:26;;;;;;;52.63;4.33;;;20.70;41.70;;;;;;10491878;28;20200;-23
2021/03/12 11:32:48;;;;;;;25.93;2.73;;;20.60;41.10;;;;;;10495893;28;20216;-22
2021/03/12 11:38:11;;;;;;;9.80;2.10;;;20.50;40.90;;;;;;10492829;28;20216;-22
2021/03/12 11:43:32;;;;;;;5.10;1.90;;;20.50;41.20;;;;;;10496805;28;20223;-24
2021/03/12 11:48:54;;;;;;;8.63;1.97;;;20.50;40.80;;;;;;10488770;28;20204;-22
2021/03/12 11:54:17;;;;;;;7.33;1.63;;;20.30;39.10;;;;;;10491619;28;20741;-22
2021/03/12 11:59:38;;;;;;;7.77;1.70;;;20.20;38.30;;;;;;10457111;28;20201;-22
2021/03/12 12:05:01;;;;;;;8.30;1.70;;;20.10;38.80;;;;;;10455362;28;20214;-22
2021/03/12 12:10:24;;;;;;;4.47;1.67;;;20.20;39.10;;;;;;10455752;28;20692;-23
2021/03/12 12:15:47;;;;;;;3.47;1.50;;;20.30;38.80;;;;;;10481647;28;20573;-22
2021/03/12 12:21:08;;;;;;;5.13;1.97;;;20.20;38.70;;;;;;10456200;28;20194;-22
2021/03/12 12:26:31;;;;;;;4.97;1.40;;;20.10;38.90;;;;;;10485619;28;20212;-21
2021/03/12 12:31:53;;;;;;;2.90;1.60;;;20.20;39.90;;;;;;10477840;28;20652;-22
2021/03/12 12:37:14;;;;;;;5.40;1.77;;;20.20;39.70;;;;;;10452414;28;20207;-22
2021/03/12 12:42:37;;;;;;;4.80;1.50;;;20.10;38.30;;;;;;10466519;28;20260;-22
2021/03/12 12:47:58;;;;;;;4.67;1.70;;;20.20;38.30;;;;;;10484691;28;20200;-22
2021/03/12 12:53:20;;;;;;;6.53;2.43;;;20.60;40.10;;;;;;10491367;28;20232;-25
2021/03/12 12:58:43;;;;;;;7.70;3.57;;;20.90;41.20;;;;;;10452685;28;20189;-23
2021/03/12 13:04:04;;;;;;;11.53;6.67;;;21.40;41.30;;;;;;10452602;28;20217;-22
2021/03/12 13:09:26;;;;;;;16.20;8.13;;;21.60;41.40;;;;;;10452430;28;20242;-22
2021/03/12 13:14:49;;;;;;;21.30;9.60;;;21.70;41.80;;;;;;10451387;28;20216;-22
2021/03/12 13:20:18;;;;;;;21.63;10.80;;;21.80;41.90;;;;;;10487147;28;20196;-22
2021/03/12 13:25:40;;;;;;;24.30;12.10;;;22.00;42.00;;;;;;10478977;28;20223;-22
2021/03/12 13:31:02;;;;;;;22.07;12.50;;;22.00;42.20;;;;;;10491261;28;20570;-25
2021/03/12 13:36:24;;;;;;;23.67;12.50;;;22.00;42.40;;;;;;10452258;28;20246;-22
2021/03/12 13:41:45;;;;;;;22.07;13.70;;;21.90;42.50;;;;;;10419597;28;20217;-22
2021/03/12 13:47:08;;;;;;;25.57;15.70;;;21.90;42.80;;;;;;10434951;28;20208;-22
2021/03/12 13:52:29;;;;;;;24.97;14.97;;;21.90;43.10;;;;;;10450380;28;20220;-22
2021/03/12 13:57:51;;;;;;;27.90;15.23;;;21.70;43.70;;;;;;10416025;28;20251;-22
2021/03/12 14:03:14;;;;;;;24.73;15.77;;;21.40;44.30;;;;;;10418328;28;20220;-22
2021/03/12 14:08:35;;;;;;;27.50;15.93;;;21.10;45.10;;;;;;10410297;28;20197;-22
2021/03/12 14:13:57;;;;;;;24.43;15.23;;;20.80;45.80;;;;;;10421695;28;20228;-23
2021/03/12 14:19:21;;;;;;;23.50;14.50;;;20.70;46.20;;;;;;10432193;28;20232;-23
2021/03/12 14:24:42;;;;;;;27.63;15.70;;;20.70;46.60;;;;;;10429750;28;20213;-23
2021/03/12 14:30:05;;;;;;;21.73;14.53;;;20.70;46.70;;;;;;10417569;28;20201;-22
2021/03/12 14:35:27;;;;;;;20.93;13.40;;;20.70;46.70;;;;;;10486987;28;20216;-23
2021/03/12 14:40:49;;;;;;;21.57;13.60;;;20.60;47.00;;;;;;10486117;28;20201;-23
2021/03/12 14:46:10;;;;;;;19.63;12.50;;;20.60;47.10;;;;;;10465225;28;20691;-23
2021/03/12 14:51:33;;;;;;;17.47;11.83;;;20.60;47.20;;;;;;10486309;28;20224;-23
2021/03/12 14:56:54;;;;;;;19.30;11.63;;;20.50;47.30;;;;;;10483835;28;20275;-23
2021/03/12 15:02:16;;;;;;;17.87;10.83;;;20.60;47.60;;;;;;10494819;28;20223;-21
2021/03/12 15:07:39;;;;;;;20.43;11.97;;;20.60;47.40;;;;;;10472139;28;20200;-22
2021/03/12 15:13:00;;;;;;;18.50;10.53;;;20.60;47.60;;;;;;10486726;28;20225;-21
2021/03/12 15:18:22;;;;;;;18.13;10.47;;;20.50;47.80;;;;;;10499940;28;20579;-22
2021/03/12 15:23:45;;;;;;;15.13;10.33;;;20.50;48.00;;;;;;10508447;28;20269;-23
2021/03/12 15:29:07;;;;;;;19.67;10.97;;;20.50;47.90;;;;;;10499751;28;20617;-23
2021/03/12 15:34:28;;;;;;;17.30;11.50;;;20.50;48.00;;;;;;10504094;28;20284;-22
2021/03/12 15:39:51;;;;;;;15.60;9.80;;;20.50;48.30;;;;;;10490508;28;20341;-21
2021/03/12 15:45:13;;;;;;;14.23;10.43;;;20.50;48.30;;;;;;10478425;28;20243;-22
2021/03/12 15:50:35;;;;;;;14.87;9.83;;;20.50;48.10;;;;;;10490634;28;20204;-22
2021/03/12 15:55:57;;;;;;;14.83;9.80;;;20.60;47.90;;;;;;10495392;28;20761;-22
2021/03/12 16:01:19;;;;;;;14.90;9.20;;;20.70;48.50;;;;;;10495692;28;20244;-22
2021/03/12 16:06:41;;;;;;;12.67;8.90;;;20.60;47.90;;;;;;10455058;28;20197;-23
2021/03/12 16:12:03;;;;;;;12.30;8.23;;;20.50;48.10;;;;;;10463973;28;20220;-21
2021/03/12 16:17:25;;;;;;;13.93;8.90;;;20.60;48.10;;;;;;10485196;28;20200;-23
2021/03/12 16:22:47;;;;;;;11.23;8.40;;;20.60;48.00;;;;;;10493649;28;20258;-20
2021/03/12 16:28:10;;;;;;;11.77;7.93;;;20.60;48.00;;;;;;10494809;28;20287;-22
2021/03/12 16:33:31;;;;;;;12.13;7.40;;;20.60;48.00;;;;;;10493258;28;20295;-23
2021/03/12 16:38:53;;;;;;;12.77;7.33;;;20.70;47.90;;;;;;10489750;28;20303;-23
2021/03/12 16:44:15;;;;;;;12.57;7.40;;;20.70;47.80;;;;;;10462166;28;20215;-23
2021/03/12 16:49:37;;;;;;;10.47;7.20;;;20.70;47.90;;;;;;10473592;28;20192;-22
2021/03/12 16:54:59;;;;;;;8.83;6.73;;;20.70;47.90;;;;;;10454266;28;20610;-22
2021/03/12 17:00:22;;;;;;;9.77;6.87;;;20.80;47.70;;;;;;10451514;28;20668;-22
2021/03/12 17:05:44;;;;;;;11.70;6.97;;;20.90;47.60;;;;;;10450451;28;20213;-22
2021/03/12 17:11:06;;;;;;;8.00;5.70;;;21.10;47.20;;;;;;10451283;28;20215;-22
2021/03/12 17:16:29;;;;;;;8.47;6.03;;;21.40;46.50;;;;;;10451730;28;20252;-21
2021/03/12 17:21:50;;;;;;;9.13;5.90;;;21.70;45.90;;;;;;10451912;28;20296;-22
2021/03/12 17:27:12;;;;;;;6.63;4.90;;;21.90;45.50;;;;;;10450386;28;20557;-22
2021/03/12 17:32:35;;;;;;;7.23;5.03;;;22.10;45.20;;;;;;10450879;28;20216;-21
2021/03/12 17:37:58;;;;;;;6.60;4.80;;;22.10;45.00;;;;;;10466510;28;20196;-22
2021/03/12 17:43:20;;;;;;;8.60;5.30;;;21.70;45.90;;;;;;10490537;28;20212;-22
2021/03/12 17:48:43;;;;;;;8.17;4.67;;;21.40;46.50;;;;;;10478135;28;20204;-22
2021/03/12 17:54:06;;;;;;;6.23;4.40;;;21.20;47.10;;;;;;10450891;28;20216;-23
2021/03/12 17:59:28;;;;;;;6.00;3.90;;;21.00;47.40;;;;;;10456367;28;20193;-23
2021/03/12 18:04:50;;;;;;;11.93;4.83;;;20.80;47.80;;;;;;10458413;28;20204;-22
2021/03/12 18:10:13;;;;;;;9.03;4.70;;;20.90;48.20;;;;;;10457688;28;20193;-21
2021/03/12 18:15:35;;;;;;;9.37;4.90;;;20.90;48.20;;;;;;10479877;28;20213;-22
2021/03/12 18:20:58;;;;;;;6.40;3.87;;;20.90;48.20;;;;;;10488718;28;21037;-21
2021/03/12 18:26:19;;;;;;;5.70;3.97;;;20.90;48.10;;;;;;10466915;28;20664;-22
2021/03/12 18:31:41;;;;;;;5.73;3.80;;;20.90;48.30;;;;;;10457375;28;20229;-22
2021/03/12 18:37:04;;;;;;;4.97;4.07;;;20.90;48.50;;;;;;10457364;28;20262;-22
2021/03/12 18:42:25;;;;;;;16.27;4.53;;;21.00;48.50;;;;;;10481432;28;20224;-22
2021/03/12 18:47:47;;;;;;;69.00;7.30;;;21.10;48.30;;;;;;10493344;28;20626;-22
2021/03/12 18:53:10;;;;;;;32.67;4.63;;;21.10;48.40;;;;;;10499157;28;20223;-22
2021/03/12 18:58:31;;;;;;;33.17;5.03;;;21.00;48.60;;;;;;10457286;28;20567;-24
2021/03/12 19:03:53;;;;;;;87.13;8.00;;;21.10;48.50;;;;;;10471523;28;20224;-23
2021/03/12 19:09:16;;;;;;;24.30;3.87;;;21.20;46.30;;;;;;10453358;28;20197;-23
2021/03/12 19:14:38;;;;;;;10.90;2.87;;;21.00;44.50;;;;;;10456509;28;20221;-23
2021/03/12 19:19:59;;;;;;;9.03;2.27;;;20.80;43.30;;;;;;10463856;28;20188;-23
2021/03/12 19:25:22;;;;;;;3.10;1.67;;;20.30;43.90;;;;;;10496959;28;20215;-22
2021/03/12 19:30:44;;;;;;;4.77;1.83;;;20.40;43.90;;;;;;10456651;28;20188;-23
2021/03/12 19:36:06;;;;;;;3.77;1.60;;;20.40;43.50;;;;;;10457570;28;20226;-22
2021/03/12 19:41:29;;;;;;;3.30;1.50;;;20.30;43.10;;;;;;10463653;28;20234;-23
2021/03/12 19:46:51;;;;;;;2.10;1.43;;;20.30;42.80;;;;;;10455896;28;20204;-23
2021/03/12 19:52:13;;;;;;;2.60;1.57;;;20.30;42.80;;;;;;10454843;28;20228;-24
2021/03/12 19:57:36;;;;;;;4.00;1.70;;;20.40;43.80;;;;;;10455635;28;20204;-23
2021/03/12 20:02:58;;;;;;;6.37;1.63;;;20.70;45.10;;;;;;10480026;28;20695;-24
2021/03/12 20:08:20;;;;;;;4.73;1.70;;;20.90;45.40;;;;;;10482630;28;20439;-24
2021/03/12 20:13:42;;;;;;;4.33;1.47;;;21.10;45.50;;;;;;10482438;28;20239;-23
2021/03/12 20:19:04;;;;;;;3.73;1.50;;;21.20;45.60;;;;;;10476879;28;20537;-23
2021/03/12 20:24:25;;;;;;;5.90;1.80;;;21.30;45.80;;;;;;10495829;28;20215;-22
2021/03/12 20:29:48;;;;;;;4.13;1.80;;;21.30;45.90;;;;;;10481216;28;20207;-22
2021/03/12 20:35:12;;;;;;;3.27;1.60;;;21.40;45.90;;;;;;10490898;28;20222;-22
2021/03/12 20:40:34;;;;;;;3.73;1.50;;;21.50;45.90;;;;;;10460680;28;20662;-22
2021/03/12 20:45:57;;;;;;;3.40;1.80;;;21.60;45.70;;;;;;10453575;28;20263;-23
2021/03/12 20:51:19;;;;;;;4.20;1.83;;;21.50;45.90;;;;;;10471230;28;20254;-22
2021/03/12 20:56:40;;;;;;;3.03;1.70;;;21.50;46.00;;;;;;10485893;28;20579;-22
2021/03/12 21:02:03;;;;;;;2.67;1.53;;;21.60;45.90;;;;;;10493082;28;20216;-23
2021/03/12 21:07:24;;;;;;;3.63;1.80;;;21.70;45.70;;;;;;10498858;28;20196;-23
2021/03/12 21:12:46;;;;;;;2.77;1.60;;;21.70;45.70;;;;;;10492583;28;20224;-21
2021/03/12 21:18:09;;;;;;;1.37;1.10;;;21.60;46.00;;;;;;10461204;28;20200;-23
2021/03/12 21:23:30;;;;;;;4.33;1.47;;;21.70;46.10;;;;;;10456783;28;20296;-22
2021/03/12 21:28:53;;;;;;;4.17;1.60;;;21.70;46.50;;;;;;10452018;28;20188;-23
2021/03/12 21:34:15;;;;;;;2.53;1.37;;;21.80;45.70;;;;;;10450626;28;20224;-23
2021/03/12 21:39:37;;;;;;;2.13;1.20;;;21.90;45.80;;;;;;10451617;28;20201;-23
2021/03/12 21:45:00;;;;;;;2.17;1.47;;;21.70;45.90;;;;;;10479944;28;20675;-23
2021/03/12 21:50:23;;;;;;;2.27;1.40;;;21.60;46.30;;;;;;10493422;28;20695;-23
2021/03/12 21:55:44;;;;;;;2.00;1.27;;;21.40;46.90;;;;;;10493430;28;20903;-24
2021/03/12 22:01:06;;;;;;;1.87;1.10;;;21.20;47.40;;;;;;10493379;28;20196;-24
2021/03/12 22:06:29;;;;;;;2.27;1.50;;;20.90;47.70;;;;;;10493479;28;20257;-22
2021/03/12 22:11:51;;;;;;;1.67;1.23;;;20.90;47.90;;;;;;10481573;28;20216;-24
2021/03/12 22:17:12;;;;;;;3.00;1.20;;;20.80;48.00;;;;;;10458989;28;20200;-23
2021/03/12 22:22:35;;;;;;;2.53;1.10;;;20.70;48.30;;;;;;10481173;28;20491;-24
2021/03/12 22:27:57;;;;;;;3.13;1.30;;;20.60;49.10;;;;;;10478091;28;20208;-24
2021/03/12 22:33:19;;;;;;;1.73;1.10;;;20.60;48.50;;;;;;10493133;28;20220;-23
2021/03/12 22:38:42;;;;;;;1.60;1.20;;;20.50;48.50;;;;;;10493284;28;20583;-23
2021/03/12 22:44:04;;;;;;;1.93;1.13;;;20.50;48.70;;;;;;10469848;28;20273;-23
2021/03/12 22:49:25;;;;;;;1.40;1.00;;;20.40;48.90;;;;;;10458688;28;20255;-23
2021/03/12 22:54:48;;;;;;;2.33;1.20;;;20.40;48.90;;;;;;10458422;28;20216;-23
2021/03/12 23:00:15;;;;;;;1.50;1.20;;;20.40;48.80;;;;;;10458174;28;20208;-24
2021/03/12 23:05:38;;;;;;;1.50;1.00;;;20.40;48.90;;;;;;10486948;28;20215;-23
2021/03/12 23:11:03;;;;;;;2.17;1.00;;;20.30;49.10;;;;;;10496173;28;20200;-23
2021/03/12 23:16:25;;;;;;;1.73;1.10;;;20.20;49.20;;;;;;10496665;28;20216;-24
2021/03/12 23:21:47;;;;;;;1.90;1.10;;;20.20;49.20;;;;;;10458669;28;20228;-23
2021/03/12 23:27:09;;;;;;;1.50;0.90;;;20.20;49.10;;;;;;10457830;28;20206;-23
2021/03/12 23:32:32;;;;;;;0.97;0.87;;;20.20;49.20;;;;;;10457435;28;20224;-23
2021/03/12 23:37:54;;;;;;;1.00;0.90;;;20.20;49.40;;;;;;10456998;28;20193;-23
2021/03/12 23:43:20;;;;;;;1.50;0.90;;;20.20;49.20;;;;;;10464690;28;20215;-23
2021/03/12 23:48:42;;;;;;;1.37;0.90;;;20.20;49.30;;;;;;10493135;28;20193;-24
2021/03/12 23:54:04;;;;;;;1.47;1.10;;;20.20;49.40;;;;;;10497476;28;20216;-25
2021/03/12 23:59:27;;;;;;;1.60;0.87;;;20.20;49.50;;;;;;10483165;28;20201;-24
